Time;durP1;ratioP1;P1;durP2;ratioP2;P2;SDS_P1;SDS_P2;PMS_P1;PMS_P2;Temp;Humidity;BMP_temperature;BMP_pressure;BME280_temperature;BME280_humidity;BME280_pressure;Samples;Min_cycle;Max_cycle;Signal;HPM_P1;HPM_P2
2022/07/11 00:01:04;;;;;;;;;;;15.20;99.90;;;;;;5032160;28;19928;-51
2022/07/11 00:03:48;;;;;;;;;;;15.40;99.90;;;;;;5020089;28;19924;-53
2022/07/11 00:06:33;;;;;;;;;;;15.30;99.90;;;;;;5033349;28;19969;-50
2022/07/11 00:09:17;;;;;;;;;;;15.40;99.90;;;;;;5034457;28;19916;-51
2022/07/11 00:12:01;;;;;;;;;;;15.40;99.90;;;;;;5034042;28;20395;-49
2022/07/11 00:14:45;;;;;;;;;;;15.50;99.90;;;;;;5033795;28;19962;-51
2022/07/11 00:17:29;;;;;;;;;;;15.30;99.90;;;;;;5028708;28;19968;-48
2022/07/11 00:20:14;;;;;;;;;;;15.20;99.90;;;;;;5034230;28;19920;-48
2022/07/11 00:22:58;;;;;;;;;;;15.10;99.90;;;;;;5034157;28;19919;-49
2022/07/11 00:25:42;;;;;;;;;;;14.90;99.90;;;;;;5033148;28;19919;-51
2022/07/11 00:28:26;;;;;;;;;;;15.10;99.90;;;;;;5032705;28;19975;-50
2022/07/11 00:31:11;;;;;;;;;;;14.90;99.90;;;;;;5033462;28;20055;-55
2022/07/11 00:33:55;;;;;;;;;;;14.70;99.90;;;;;;5018297;28;20435;-51
2022/07/11 00:36:39;;;;;;;;;;;14.60;99.90;;;;;;5033298;28;19924;-54
2022/07/11 00:39:23;;;;;;;;;;;14.40;99.90;;;;;;5019168;28;19947;-54
2022/07/11 00:42:07;;;;;;;;;;;14.50;99.90;;;;;;5019210;28;19920;-53
2022/07/11 00:44:51;;;;;;;;;;;14.60;99.90;;;;;;5046522;28;19967;-53
2022/07/11 00:47:36;;;;;;;;;;;14.70;99.90;;;;;;5033935;28;20008;-52
2022/07/11 00:50:20;;;;;;;;;;;14.70;99.90;;;;;;5035185;28;19963;-53
2022/07/11 00:53:04;;;;;;;;;;;14.50;99.90;;;;;;5035951;28;19963;-53
2022/07/11 00:55:49;;;;;;;;;;;14.40;99.90;;;;;;5037234;28;19921;-50
2022/07/11 00:58:34;;;;;;;;;;;14.40;99.90;;;;;;5033441;28;19916;-54
2022/07/11 01:01:18;;;;;;;;;;;14.50;99.90;;;;;;5033864;28;19920;-48
2022/07/11 01:04:04;;;;;;;;;;;14.40;99.90;;;;;;5014532;28;19916;-52
2022/07/11 01:06:48;;;;;;;;;;;14.50;99.90;;;;;;5012861;28;19920;-53
2022/07/11 01:09:32;;;;;;;;;;;14.40;99.90;;;;;;5014468;28;19917;-54
2022/07/11 01:12:17;;;;;;;;;;;14.40;99.90;;;;;;5014533;28;20403;-53
2022/07/11 01:15:02;;;;;;;;;;;14.40;99.90;;;;;;5033136;28;20291;-53
2022/07/11 01:17:46;;;;;;;;;;;14.40;99.90;;;;;;5032770;28;20376;-53
2022/07/11 01:20:31;;;;;;;;;;;14.30;99.90;;;;;;5032601;28;20027;-53
2022/07/11 01:23:15;;;;;;;;;;;14.20;99.90;;;;;;5018344;28;19967;-53
2022/07/11 01:25:59;;;;;;;;;;;14.10;99.90;;;;;;5032572;28;20388;-50
2022/07/11 01:28:44;;;;;;;;;;;14.00;99.90;;;;;;5032630;28;19929;-52
2022/07/11 01:31:28;;;;;;;;;;;14.00;99.90;;;;;;5032381;28;20443;-49
2022/07/11 01:34:13;;;;;;;;;;;14.10;99.90;;;;;;5032514;28;20416;-49
2022/07/11 01:36:57;;;;;;;;;;;14.00;99.90;;;;;;5032176;28;19920;-48
2022/07/11 01:39:41;;;;;;;;;;;13.90;99.90;;;;;;5032350;28;19923;-50
2022/07/11 01:42:26;;;;;;;;;;;13.80;99.90;;;;;;5033190;28;19967;-51
2022/07/11 01:45:11;;;;;;;;;;;14.00;99.90;;;;;;5018019;28;20009;-51
2022/07/11 01:47:55;;;;;;;;;;;13.90;99.90;;;;;;5032843;28;19912;-52
2022/07/11 01:50:39;;;;;;;;;;;13.90;99.90;;;;;;5033007;28;20006;-49
2022/07/11 01:53:23;;;;;;;;;;;13.80;99.90;;;;;;5032668;28;19916;-48
2022/07/11 01:56:07;;;;;;;;;;;13.90;99.90;;;;;;5017714;28;19959;-49
2022/07/11 01:58:52;;;;;;;;;;;13.80;99.90;;;;;;5032890;28;19939;-53
2022/07/11 02:01:36;;;;;;;;;;;13.90;99.90;;;;;;5033365;28;20023;-51
2022/07/11 02:04:20;;;;;;;;;;;13.90;99.90;;;;;;5032438;28;20315;-55
2022/07/11 02:07:04;;;;;;;;;;;13.80;99.90;;;;;;5032196;28;20388;-54
2022/07/11 02:09:49;;;;;;;;;;;13.70;99.90;;;;;;5032490;28;19920;-56
2022/07/11 02:12:33;;;;;;;;;;;13.70;99.90;;;;;;5032312;28;19979;-52
2022/07/11 02:15:17;;;;;;;;;;;13.50;99.90;;;;;;5045132;28;20387;-54
2022/07/11 02:18:02;;;;;;;;;;;13.60;99.90;;;;;;5052059;28;19966;-52
2022/07/11 02:20:46;;;;;;;;;;;13.70;99.90;;;;;;5032527;28;20387;-50
2022/07/11 02:23:30;;;;;;;;;;;13.60;99.90;;;;;;5032686;28;19944;-50
2022/07/11 02:26:14;;;;;;;;;;;13.70;99.90;;;;;;5032033;28;20432;-50
2022/07/11 02:28:59;;;;;;;;;;;13.70;99.90;;;;;;5033297;28;20032;-51
2022/07/11 02:31:43;;;;;;;;;;;13.80;99.90;;;;;;5033386;28;20331;-53
2022/07/11 02:34:27;;;;;;;;;;;13.70;99.90;;;;;;5034300;28;19937;-49
2022/07/11 02:37:11;;;;;;;;;;;13.60;99.90;;;;;;5036061;28;19935;-51
2022/07/11 02:39:56;;;;;;;;;;;13.70;99.90;;;;;;5035748;28;19924;-51
2022/07/11 02:42:40;;;;;;;;;;;13.70;99.90;;;;;;5035608;28;20064;-50
2022/07/11 02:45:25;;;;;;;;;;;13.70;99.90;;;;;;5015973;28;19916;-51
2022/07/11 02:48:09;;;;;;;;;;;13.80;99.90;;;;;;5031475;28;20339;-53
2022/07/11 02:50:53;;;;;;;;;;;13.80;99.90;;;;;;5036128;28;19999;-53
2022/07/11 02:53:38;;;;;;;;;;;13.80;99.90;;;;;;5035821;28;19916;-51
2022/07/11 02:56:22;;;;;;;;;;;13.80;99.90;;;;;;5035908;28;20006;-48
2022/07/11 02:59:06;;;;;;;;;;;13.80;99.90;;;;;;5021733;28;19920;-54
2022/07/11 03:01:51;;;;;;;;;;;13.70;99.90;;;;;;5036651;28;19924;-55
2022/07/11 03:04:35;;;;;;;;;;;13.50;99.90;;;;;;5035805;28;19916;-48
2022/07/11 03:07:19;;;;;;;;;;;13.50;99.90;;;;;;5019845;28;19932;-50
2022/07/11 03:10:04;;;;;;;;;;;13.50;99.90;;;;;;5034745;28;19960;-54
2022/07/11 03:12:49;;;;;;;;;;;13.50;99.90;;;;;;5034962;28;19916;-48
2022/07/11 03:15:33;;;;;;;;;;;13.40;99.90;;;;;;5029232;28;19932;-50
2022/07/11 03:18:17;;;;;;;;;;;13.40;99.90;;;;;;5034146;28;19959;-52
2022/07/11 03:21:01;;;;;;;;;;;13.40;99.90;;;;;;5035310;28;19936;-52
2022/07/11 03:23:46;;;;;;;;;;;13.40;99.90;;;;;;5034738;28;20308;-48
2022/07/11 03:26:30;;;;;;;;;;;13.50;99.90;;;;;;5033182;28;20593;-49
2022/07/11 03:29:14;;;;;;;;;;;13.50;99.90;;;;;;5035192;28;20055;-48
2022/07/11 03:31:58;;;;;;;;;;;13.60;99.90;;;;;;5036117;28;19916;-52
2022/07/11 03:35:40;;;;;;;;;;;13.70;99.90;;;;;;5035530;28;19920;-50
2022/07/11 03:37:47;;;;;;;;;;;13.70;99.90;;;;;;5034522;28;20425;-52
2022/07/11 03:40:31;;;;;;;;;;;13.70;99.90;;;;;;5035178;28;19968;-48
2022/07/11 03:43:15;;;;;;;;;;;13.80;99.90;;;;;;5039630;28;19924;-50
2022/07/11 03:45:59;;;;;;;;;;;13.80;99.90;;;;;;5029794;28;19916;-50
2022/07/11 03:48:44;;;;;;;;;;;13.80;99.90;;;;;;5019176;28;19920;-51
2022/07/11 03:51:28;;;;;;;;;;;13.80;99.90;;;;;;5034245;28;20335;-53
2022/07/11 03:54:12;;;;;;;;;;;13.80;99.90;;;;;;5033920;28;19967;-52
2022/07/11 03:56:56;;;;;;;;;;;13.90;99.90;;;;;;5018888;28;20401;-51
2022/07/11 03:59:40;;;;;;;;;;;14.00;99.90;;;;;;5033863;28;19969;-48
2022/07/11 04:02:24;;;;;;;;;;;14.10;99.90;;;;;;5033729;28;20292;-52
2022/07/11 04:05:09;;;;;;;;;;;14.10;99.90;;;;;;5033939;28;19915;-50
2022/07/11 04:07:53;;;;;;;;;;;14.10;99.90;;;;;;5031174;28;19960;-52
2022/07/11 04:10:37;;;;;;;;;;;14.10;99.90;;;;;;5031058;28;19919;-53
2022/07/11 04:13:21;;;;;;;;;;;14.10;99.90;;;;;;5033831;28;19928;-52
2022/07/11 04:16:06;;;;;;;;;;;14.00;99.90;;;;;;5033652;28;19916;-54
2022/07/11 04:18:50;;;;;;;;;;;14.10;99.90;;;;;;5013808;28;19963;-54
2022/07/11 04:21:34;;;;;;;;;;;14.00;99.90;;;;;;5017128;28;20028;-51
2022/07/11 04:24:18;;;;;;;;;;;13.80;99.90;;;;;;5034055;28;20008;-53
2022/07/11 04:27:03;;;;;;;;;;;14.10;99.90;;;;;;5032765;28;19936;-52
2022/07/11 04:29:47;;;;;;;;;;;14.20;99.90;;;;;;5033451;28;19912;-48
2022/07/11 04:32:31;;;;;;;;;;;14.40;99.90;;;;;;5033682;28;20013;-50
2022/07/11 04:35:17;;;;;;;;;;;14.60;99.90;;;;;;5032847;28;19911;-50
2022/07/11 04:38:01;;;;;;;;;;;14.70;99.90;;;;;;5032738;28;19962;-51
2022/07/11 04:40:45;;;;;;;;;;;14.80;99.90;;;;;;5033232;28;19924;-51
2022/07/11 04:43:29;;;;;;;;;;;14.80;99.90;;;;;;5018115;28;19923;-52
2022/07/11 04:46:14;;;;;;;;;;;14.80;99.90;;;;;;5028013;28;20395;-55
2022/07/11 04:48:58;;;;;;;;;;;14.70;99.90;;;;;;5030913;28;19912;-52
2022/07/11 04:51:42;;;;;;;;;;;14.80;99.90;;;;;;5033512;28;19963;-48
2022/07/11 04:54:27;;;;;;;;;;;14.60;99.90;;;;;;5033683;28;20059;-52
2022/07/11 04:57:11;;;;;;;;;;;14.70;99.90;;;;;;5029445;28;19923;-55
2022/07/11 04:59:55;;;;;;;;;;;14.70;99.90;;;;;;5028679;28;19954;-57
2022/07/11 05:02:39;;;;;;;;;;;14.60;99.90;;;;;;5012941;28;20391;-54
2022/07/11 05:05:23;;;;;;;;;;;14.60;99.90;;;;;;5015367;28;19912;-53
2022/07/11 05:08:08;;;;;;;;;;;14.50;99.90;;;;;;5033007;28;19920;-54
2022/07/11 05:10:52;;;;;;;;;;;14.50;99.90;;;;;;5032777;28;19911;-51
2022/07/11 05:13:37;;;;;;;;;;;14.60;99.90;;;;;;5032598;28;19915;-51
2022/07/11 05:16:21;;;;;;;;;;;14.60;99.90;;;;;;5024729;28;20022;-51
2022/07/11 05:19:06;;;;;;;;;;;14.50;99.90;;;;;;5031758;28;20575;-55
2022/07/11 05:21:50;;;;;;;;;;;14.60;99.90;;;;;;5031265;28;19920;-52
2022/07/11 05:24:34;;;;;;;;;;;14.80;99.90;;;;;;5032162;28;20327;-53
2022/07/11 05:27:18;;;;;;;;;;;15.00;99.90;;;;;;5032017;28;19920;-52
2022/07/11 05:30:02;;;;;;;;;;;15.10;99.90;;;;;;5032369;28;19955;-51
2022/07/11 05:32:47;;;;;;;;;;;15.30;99.90;;;;;;5032395;28;20006;-52
2022/07/11 05:35:31;;;;;;;;;;;15.20;99.90;;;;;;5032266;28;19923;-54
2022/07/11 05:38:15;;;;;;;;;;;15.10;99.90;;;;;;5017249;28;19975;-50
2022/07/11 05:40:59;;;;;;;;;;;15.00;99.90;;;;;;5032890;28;19958;-52
2022/07/11 05:43:43;;;;;;;;;;;15.10;99.90;;;;;;5024945;28;19959;-49
2022/07/11 05:46:28;;;;;;;;;;;15.20;99.90;;;;;;5022646;28;20004;-51
2022/07/11 05:49:15;;;;;;;;;;;15.40;99.90;;;;;;5033139;28;19916;-49
2022/07/11 05:52:00;;;;;;;;;;;15.50;99.90;;;;;;5033281;28;20012;-50
2022/07/11 05:54:44;;;;;;;;;;;15.50;99.90;;;;;;5033287;28;20004;-51
2022/07/11 05:57:29;;;;;;;;;;;15.30;99.90;;;;;;5031741;28;20055;-51
2022/07/11 06:00:13;;;;;;;;;;;15.60;99.90;;;;;;5032398;28;19919;-55
2022/07/11 06:02:58;;;;;;;;;;;15.60;99.90;;;;;;5032612;28;19967;-55
2022/07/11 06:05:42;;;;;;;;;;;15.60;99.90;;;;;;5031563;28;19920;-55
2022/07/11 06:08:41;;;;;;;;;;;15.30;99.90;;;;;;5018703;28;19955;-54
2022/07/11 06:11:26;;;;;;;;;;;15.30;99.90;;;;;;5017032;28;19916;-51
2022/07/11 06:14:10;;;;;;;;;;;15.50;99.90;;;;;;5026750;28;19915;-50
2022/07/11 06:16:54;;;;;;;;;;;15.90;99.90;;;;;;5035632;28;20374;-51
2022/07/11 06:19:38;;;;;;;;;;;15.80;99.90;;;;;;5035573;28;19920;-49
2022/07/11 06:22:23;;;;;;;;;;;15.80;99.90;;;;;;5035961;28;20005;-53
2022/07/11 06:25:08;;;;;;;;;;;15.90;99.90;;;;;;5034834;28;20027;-54
2022/07/11 06:27:53;;;;;;;;;;;15.80;99.90;;;;;;5015543;28;20012;-57
2022/07/11 06:30:37;;;;;;;;;;;15.90;99.90;;;;;;5017693;28;19966;-56
2022/07/11 06:33:21;;;;;;;;;;;16.10;99.90;;;;;;5035005;28;20335;-53
2022/07/11 06:36:06;;;;;;;;;;;16.20;99.90;;;;;;5032553;28;19916;-54
2022/07/11 06:38:51;;;;;;;;;;;16.30;99.90;;;;;;5035415;28;19936;-55
2022/07/11 06:41:35;;;;;;;;;;;16.20;99.60;;;;;;5025213;28;20383;-54
2022/07/11 06:44:19;;;;;;;;;;;16.00;99.90;;;;;;5035734;28;19963;-55
2022/07/11 06:47:05;;;;;;;;;;;16.10;99.90;;;;;;5034628;28;20363;-53
2022/07/11 06:49:49;;;;;;;;;;;16.20;99.90;;;;;;5034728;28;19974;-51
2022/07/11 06:52:33;;;;;;;;;;;16.40;99.60;;;;;;5030608;28;19960;-56
2022/07/11 06:55:17;;;;;;;;;;;16.60;98.80;;;;;;5018685;28;19915;-55
2022/07/11 06:58:02;;;;;;;;;;;16.60;98.60;;;;;;5017229;28;20375;-52
2022/07/11 07:00:46;;;;;;;;;;;16.50;98.10;;;;;;5034781;28;19935;-54
2022/07/11 07:03:32;;;;;;;;;;;16.60;98.40;;;;;;5014902;28;19959;-54
2022/07/11 07:06:16;;;;;;;;;;;16.80;98.30;;;;;;5023664;28;19923;-54
2022/07/11 07:09:03;;;;;;;;;;;16.90;98.10;;;;;;5013571;28;19925;-49
2022/07/11 07:11:47;;;;;;;;;;;16.80;98.10;;;;;;5032191;28;19932;-54
2022/07/11 07:14:31;;;;;;;;;;;16.90;98.00;;;;;;5028136;28;19924;-52
2022/07/11 07:17:16;;;;;;;;;;;16.80;98.20;;;;;;5031191;28;20069;-53
2022/07/11 07:20:00;;;;;;;;;;;17.00;98.10;;;;;;5031698;28;19911;-52
2022/07/11 07:22:44;;;;;;;;;;;17.30;97.50;;;;;;5032594;28;20006;-51
2022/07/11 07:25:29;;;;;;;;;;;17.50;96.70;;;;;;5022577;28;19963;-57
2022/07/11 07:28:13;;;;;;;;;;;17.50;96.70;;;;;;5032915;28;19916;-55
2022/07/11 07:30:57;;;;;;;;;;;17.50;96.70;;;;;;5031159;28;19986;-57
2022/07/11 07:33:41;;;;;;;;;;;17.30;97.30;;;;;;5030312;28;20367;-56
2022/07/11 07:36:26;;;;;;;;;;;17.30;97.20;;;;;;5029498;28;20463;-56
2022/07/11 07:39:10;;;;;;;;;;;17.50;95.70;;;;;;5031806;28;20296;-57
2022/07/11 07:41:54;;;;;;;;;;;17.60;95.80;;;;;;5017596;28;19982;-56
2022/07/11 07:44:38;;;;;;;;;;;17.80;95.50;;;;;;5028124;28;19921;-58
2022/07/11 07:47:23;;;;;;;;;;;17.80;94.90;;;;;;5035770;28;19968;-57
2022/07/11 07:50:07;;;;;;;;;;;17.70;95.00;;;;;;5028873;28;20423;-54
2022/07/11 07:52:51;;;;;;;;;;;17.80;94.90;;;;;;5032297;28;19924;-57
2022/07/11 07:55:35;;;;;;;;;;;17.80;94.70;;;;;;5032776;28;19916;-58
2022/07/11 07:58:19;;;;;;;;;;;17.80;94.80;;;;;;5029896;28;19970;-56
2022/07/11 08:04:08;;;;;;;;;;;18.10;94.20;;;;;;5028388;28;20335;-56
2022/07/11 08:06:54;;;;;;;;;;;18.10;94.20;;;;;;5033926;28;20003;-58
2022/07/11 08:09:40;;;;;;;;;;;17.90;93.60;;;;;;5029777;28;20020;-55
2022/07/11 08:12:24;;;;;;;;;;;17.90;93.50;;;;;;5030961;28;19932;-57
2022/07/11 08:15:08;;;;;;;;;;;17.90;94.00;;;;;;5030416;28;20339;-55
2022/07/11 08:17:52;;;;;;;;;;;18.20;93.60;;;;;;5032987;28;19920;-56
2022/07/11 08:20:36;;;;;;;;;;;18.30;93.40;;;;;;5033395;28;19920;-56
2022/07/11 08:23:20;;;;;;;;;;;18.40;93.50;;;;;;5033934;28;19964;-57
2022/07/11 08:26:05;;;;;;;;;;;18.50;93.50;;;;;;5048738;28;19928;-51
2022/07/11 08:28:51;;;;;;;;;;;18.60;92.90;;;;;;5049838;28;19924;-54
2022/07/11 08:31:36;;;;;;;;;;;18.40;92.80;;;;;;5033518;28;19915;-55
2022/07/11 08:34:20;;;;;;;;;;;18.10;91.60;;;;;;5018983;28;19916;-58
2022/07/11 08:37:05;;;;;;;;;;;17.90;91.70;;;;;;5030599;28;19994;-56
2022/07/11 08:39:49;;;;;;;;;;;18.10;91.90;;;;;;5032625;28;19964;-54
2022/07/11 08:42:37;;;;;;;;;;;18.20;91.90;;;;;;5013633;28;20404;-54
2022/07/11 08:45:22;;;;;;;;;;;18.40;91.60;;;;;;5024795;28;19919;-57
2022/07/11 08:48:07;;;;;;;;;;;18.60;91.20;;;;;;5017795;28;19951;-55
2022/07/11 08:50:51;;;;;;;;;;;18.70;90.40;;;;;;5032728;28;19920;-55
2022/07/11 08:53:44;;;;;;;;;;;18.60;90.60;;;;;;5032893;28;19928;-58
2022/07/11 08:56:29;;;;;;;;;;;18.80;90.40;;;;;;5032308;28;19920;-56
2022/07/11 08:59:17;;;;;;;;;;;18.80;89.20;;;;;;5032505;28;20371;-55
2022/07/11 09:02:03;;;;;;;;;;;18.70;90.20;;;;;;5032478;28;19920;-57
2022/07/11 09:04:47;;;;;;;;;;;18.60;90.70;;;;;;5032555;28;19943;-58
2022/07/11 09:07:32;;;;;;;;;;;18.70;90.80;;;;;;5032058;28;19962;-59
2022/07/11 09:10:17;;;;;;;;;;;18.60;90.70;;;;;;5024733;28;19912;-55
2022/07/11 09:13:05;;;;;;;;;;;18.70;90.20;;;;;;5032013;28;19924;-57
2022/07/11 09:15:49;;;;;;;;;;;18.90;88.80;;;;;;5012587;28;20427;-56
2022/07/11 09:18:38;;;;;;;;;;;18.90;89.10;;;;;;5022944;28;19994;-57
2022/07/11 09:27:39;;;;;;;;;;;19.20;86.30;;;;;;5022930;28;19955;-58
2022/07/11 09:30:27;;;;;;;;;;;19.10;86.70;;;;;;5032252;28;19920;-57
2022/07/11 09:33:12;;;;;;;;;;;19.20;87.30;;;;;;5032568;28;19920;-55
2022/07/11 09:35:56;;;;;;;;;;;19.30;87.20;;;;;;5031063;28;19912;-55
2022/07/11 09:38:55;;;;;;;;;;;19.60;84.10;;;;;;5015250;28;19924;-58
2022/07/11 09:41:39;;;;;;;;;;;19.60;82.80;;;;;;5031159;28;20496;-54
2022/07/11 09:44:24;;;;;;;;;;;19.60;83.10;;;;;;5030541;28;19920;-57
2022/07/11 09:47:09;;;;;;;;;;;19.60;82.30;;;;;;5019027;28;19963;-57
2022/07/11 09:49:53;;;;;;;;;;;19.80;84.00;;;;;;5026106;28;19915;-57
2022/07/11 09:52:38;;;;;;;;;;;20.10;85.00;;;;;;5035781;28;20439;-57
2022/07/11 09:55:22;;;;;;;;;;;20.00;85.60;;;;;;5035436;28;19924;-56
2022/07/11 09:58:07;;;;;;;;;;;19.70;86.90;;;;;;5036028;28;19959;-56
2022/07/11 10:00:52;;;;;;;;;;;19.40;87.30;;;;;;5034997;28;19916;-58
2022/07/11 10:03:36;;;;;;;;;;;19.30;85.40;;;;;;5035267;28;20008;-56
2022/07/11 10:06:22;;;;;;;;;;;19.20;82.10;;;;;;5035374;28;19967;-58
2022/07/11 10:09:07;;;;;;;;;;;19.40;83.00;;;;;;5036023;28;19951;-58
2022/07/11 10:11:51;;;;;;;;;;;19.80;81.60;;;;;;5020859;28;20127;-57
2022/07/11 10:14:38;;;;;;;;;;;20.00;81.60;;;;;;5035653;28;20276;-57
2022/07/11 10:17:42;;;;;;;;;;;20.30;81.40;;;;;;5034694;28;20032;-57
2022/07/11 10:20:35;;;;;;;;;;;20.10;79.60;;;;;;5042644;28;19911;-54
2022/07/11 10:23:23;;;;;;;;;;;19.60;80.00;;;;;;5032972;28;19919;-56
2022/07/11 10:26:14;;;;;;;;;;;19.50;80.30;;;;;;5035773;28;19932;-57
2022/07/11 10:29:04;;;;;;;;;;;19.60;81.00;;;;;;5035194;28;20019;-58
2022/07/11 10:32:04;;;;;;;;;;;19.80;79.40;;;;;;5014780;28;20367;-54
2022/07/11 10:35:07;;;;;;;;;;;19.80;79.40;;;;;;5024135;28;19963;-56
2022/07/11 10:37:52;;;;;;;;;;;19.80;79.20;;;;;;5034365;28;20287;-54
2022/07/11 10:40:43;;;;;;;;;;;20.10;79.50;;;;;;5035268;28;19924;-56
2022/07/11 10:43:31;;;;;;;;;;;20.20;79.80;;;;;;5029712;28;19939;-57
2022/07/11 10:46:19;;;;;;;;;;;19.90;79.60;;;;;;5034675;28;19916;-58
2022/07/11 10:49:06;;;;;;;;;;;20.30;79.10;;;;;;5035911;28;20311;-54
2022/07/11 10:51:59;;;;;;;;;;;20.60;78.80;;;;;;5036092;28;20327;-58
2022/07/11 10:54:51;;;;;;;;;;;20.50;78.50;;;;;;5034345;28;19998;-56
2022/07/11 10:57:55;;;;;;;;;;;20.20;79.40;;;;;;5034667;28;20407;-56
2022/07/11 11:00:39;;;;;;;;;;;20.10;78.70;;;;;;5035737;28;19915;-56
2022/07/11 11:03:23;;;;;;;;;;;20.30;78.30;;;;;;5020748;28;19922;-55
2022/07/11 11:06:08;;;;;;;;;;;20.30;76.00;;;;;;5020232;28;19924;-56
2022/07/11 11:08:52;;;;;;;;;;;20.10;75.80;;;;;;5035337;28;19992;-59
2022/07/11 11:11:38;;;;;;;;;;;20.20;75.90;;;;;;5034978;28;19935;-58
2022/07/11 11:14:22;;;;;;;;;;;20.10;75.30;;;;;;5035417;28;20315;-54
2022/07/11 11:17:25;;;;;;;;;;;20.30;75.90;;;;;;5014534;28;19951;-57
2022/07/11 11:20:30;;;;;;;;;;;20.70;74.80;;;;;;5024621;28;19916;-56
2022/07/11 11:23:19;;;;;;;;;;;20.50;75.90;;;;;;5025093;28;20001;-56
2022/07/11 11:26:04;;;;;;;;;;;20.40;75.30;;;;;;5044623;28;19948;-58
2022/07/11 11:28:58;;;;;;;;;;;20.60;75.50;;;;;;5041590;28;19921;-56
2022/07/11 11:31:47;;;;;;;;;;;20.70;74.20;;;;;;5035747;28;20294;-57
2022/07/11 11:34:32;;;;;;;;;;;20.90;71.90;;;;;;5035319;28;19962;-56
2022/07/11 11:37:17;;;;;;;;;;;21.10;71.40;;;;;;5025629;28;19916;-59
2022/07/11 11:40:02;;;;;;;;;;;21.00;69.30;;;;;;5018845;28;19923;-59
2022/07/11 11:42:47;;;;;;;;;;;20.80;70.70;;;;;;5025265;28;20483;-56
2022/07/11 11:45:31;;;;;;;;;;;20.70;73.10;;;;;;5014599;28;19931;-54
2022/07/11 11:48:35;;;;;;;;;;;20.90;73.40;;;;;;5018792;28;20379;-57
2022/07/11 11:51:20;;;;;;;;;;;21.10;73.70;;;;;;5034496;28;19916;-58
2022/07/11 11:54:04;;;;;;;;;;;20.80;74.90;;;;;;5034114;28;19920;-62
2022/07/11 11:56:49;;;;;;;;;;;20.60;75.70;;;;;;5034252;28;20467;-62
2022/07/11 11:59:33;;;;;;;;;;;20.60;74.00;;;;;;5034675;28;20387;-57
2022/07/11 12:02:22;;;;;;;;;;;20.80;71.80;;;;;;5034131;28;19963;-55
2022/07/11 12:05:07;;;;;;;;;;;20.90;71.20;;;;;;5032534;28;20061;-57
2022/07/11 12:07:52;;;;;;;;;;;21.10;71.40;;;;;;5031317;28;20340;-57
2022/07/11 12:10:36;;;;;;;;;;;21.30;70.00;;;;;;5034420;28;20031;-60
2022/07/11 12:13:20;;;;;;;;;;;21.40;70.60;;;;;;5034484;28;20004;-57
2022/07/11 12:19:19;;;;;;;;;;;21.40;69.60;;;;;;5033827;28;19959;-58
2022/07/11 12:22:04;;;;;;;;;;;21.70;70.20;;;;;;5033597;28;19984;-57
2022/07/11 12:24:49;;;;;;;;;;;21.50;71.50;;;;;;5033721;28;19916;-57
2022/07/11 12:27:33;;;;;;;;;;;21.60;71.70;;;;;;5018450;28;20284;-58
2022/07/11 12:30:26;;;;;;;;;;;22.10;70.30;;;;;;5033788;28;19916;-60
2022/07/11 12:33:14;;;;;;;;;;;22.20;69.70;;;;;;5018566;28;19920;-53
2022/07/11 12:36:00;;;;;;;;;;;22.50;67.00;;;;;;5033549;28;19984;-61
2022/07/11 12:38:53;;;;;;;;;;;22.40;69.20;;;;;;5032769;28;19971;-53
2022/07/11 12:41:38;;;;;;;;;;;22.30;69.80;;;;;;5013870;28;20044;-59
2022/07/11 12:47:27;;;;;;;;;;;22.60;68.60;;;;;;5032968;28;19912;-60
2022/07/11 12:50:15;;;;;;;;;;;22.70;69.30;;;;;;5033614;28;19919;-59
2022/07/11 12:53:00;;;;;;;;;;;22.90;68.10;;;;;;5018759;28;19956;-56
2022/07/11 12:55:44;;;;;;;;;;;23.00;66.60;;;;;;5033979;28;19916;-58
2022/07/11 12:58:37;;;;;;;;;;;23.00;66.30;;;;;;5034126;28;20020;-53
2022/07/11 13:01:21;;;;;;;;;;;23.00;65.80;;;;;;5032834;28;20030;-56
2022/07/11 13:04:05;;;;;;;;;;;22.90;66.80;;;;;;5018074;28;19920;-57
2022/07/11 13:09:52;;;;;;;;;;;22.70;67.20;;;;;;5020499;28;19956;-58
2022/07/11 13:12:36;;;;;;;;;;;23.00;67.30;;;;;;5032099;28;19936;-59
2022/07/11 13:15:21;;;;;;;;;;;23.10;68.00;;;;;;5050636;28;19962;-60
2022/07/11 13:18:07;;;;;;;;;;;23.20;64.20;;;;;;5052626;28;20371;-55
2022/07/11 13:20:51;;;;;;;;;;;23.30;65.10;;;;;;5034362;28;20031;-53
2022/07/11 13:23:36;;;;;;;;;;;23.20;65.40;;;;;;5017392;28;19984;-56
2022/07/11 13:26:21;;;;;;;;;;;23.40;65.10;;;;;;5032579;28;19958;-57
2022/07/11 13:29:05;;;;;;;;;;;23.30;65.80;;;;;;5030420;28;20364;-59
2022/07/11 13:31:49;;;;;;;;;;;22.80;66.40;;;;;;5032629;28;19920;-58
2022/07/11 13:34:33;;;;;;;;;;;22.80;67.60;;;;;;5032693;28;19971;-58
2022/07/11 13:37:18;;;;;;;;;;;23.10;67.00;;;;;;5016795;28;19931;-56
2022/07/11 13:40:03;;;;;;;;;;;23.20;66.70;;;;;;5031991;28;20381;-53
2022/07/11 13:42:49;;;;;;;;;;;23.40;65.30;;;;;;5032523;28;20033;-57
2022/07/11 13:45:34;;;;;;;;;;;23.60;64.70;;;;;;5032195;28;20035;-59
2022/07/11 13:48:18;;;;;;;;;;;23.60;64.70;;;;;;5032275;28;19912;-55
2022/07/11 13:51:02;;;;;;;;;;;23.50;65.10;;;;;;5032258;28;19936;-57
2022/07/11 13:53:46;;;;;;;;;;;23.70;64.30;;;;;;5017963;28;19958;-57
2022/07/11 13:56:31;;;;;;;;;;;23.90;64.80;;;;;;5032292;28;19916;-55
2022/07/11 13:59:15;;;;;;;;;;;24.10;63.60;;;;;;5016934;28;20362;-60
2022/07/11 14:01:59;;;;;;;;;;;24.00;64.10;;;;;;5033372;28;19919;-53
2022/07/11 14:04:44;;;;;;;;;;;23.90;63.90;;;;;;5049931;28;20395;-58
2022/07/11 14:07:28;;;;;;;;;;;24.10;63.70;;;;;;5016560;28;20284;-56
2022/07/11 14:10:13;;;;;;;;;;;24.30;64.10;;;;;;5032217;28;20033;-59
2022/07/11 14:12:57;;;;;;;;;;;24.80;62.70;;;;;;5032518;28;19920;-56
2022/07/11 14:15:42;;;;;;;;;;;24.60;62.00;;;;;;5031407;28;19917;-53
2022/07/11 14:18:26;;;;;;;;;;;24.60;61.80;;;;;;5036263;28;19916;-57
2022/07/11 14:21:10;;;;;;;;;;;24.60;62.40;;;;;;5032419;28;19988;-57
2022/07/11 14:23:55;;;;;;;;;;;24.80;61.10;;;;;;5033611;28;20419;-56
2022/07/11 14:26:39;;;;;;;;;;;25.00;61.00;;;;;;5032145;28;19928;-52
2022/07/11 14:29:23;;;;;;;;;;;24.50;61.10;;;;;;5034019;28;19935;-55
2022/07/11 14:32:07;;;;;;;;;;;24.00;61.40;;;;;;5036495;28;19912;-54
2022/07/11 14:34:52;;;;;;;;;;;23.90;62.20;;;;;;5022401;28;19936;-57
2022/07/11 14:37:37;;;;;;;;;;;24.30;61.90;;;;;;5030613;28;19920;-59
2022/07/11 14:40:23;;;;;;;;;;;24.40;62.00;;;;;;5035310;28;20004;-59
2022/07/11 14:43:07;;;;;;;;;;;24.50;61.80;;;;;;5020744;28;20051;-58
2022/07/11 14:45:51;;;;;;;;;;;24.70;61.30;;;;;;5036074;28;19916;-58
2022/07/11 14:48:37;;;;;;;;;;;24.60;61.10;;;;;;5039533;28;19920;-56
2022/07/11 14:51:21;;;;;;;;;;;24.10;61.10;;;;;;5035545;28;19963;-55
2022/07/11 14:54:05;;;;;;;;;;;23.70;62.90;;;;;;5035265;28;19967;-57
2022/07/11 14:56:50;;;;;;;;;;;23.70;62.90;;;;;;5035857;28;19919;-56
2022/07/11 14:59:34;;;;;;;;;;;24.20;62.00;;;;;;5042876;28;19936;-50
2022/07/11 15:03:37;;;;;;;;;;;24.50;61.40;;;;;;5045057;28;19928;-55
2022/07/11 15:05:23;;;;;;;;;;;24.90;61.00;;;;;;5041382;28;20043;-54
2022/07/11 15:14:15;;;;;;;;;;;25.30;59.60;;;;;;5034548;28;19963;-59
2022/07/11 15:16:59;;;;;;;;;;;25.20;59.50;;;;;;5034426;28;20382;-56
2022/07/11 15:19:44;;;;;;;;;;;25.40;58.80;;;;;;5035192;28;19967;-58
2022/07/11 15:22:28;;;;;;;;;;;25.10;58.60;;;;;;5034434;28;20292;-56
2022/07/11 15:25:14;;;;;;;;;;;25.00;58.50;;;;;;5034598;28;20693;-58
2022/07/11 15:27:58;;;;;;;;;;;24.70;58.50;;;;;;5033974;28;19996;-56
2022/07/11 15:30:42;;;;;;;;;;;24.60;60.10;;;;;;5033799;28;19945;-55
2022/07/11 15:33:27;;;;;;;;;;;25.10;59.00;;;;;;5034637;28;19916;-53
2022/07/11 15:36:11;;;;;;;;;;;25.50;58.40;;;;;;5034745;28;19955;-56
2022/07/11 15:38:56;;;;;;;;;;;25.40;58.00;;;;;;5034492;28;19963;-57
2022/07/11 15:41:40;;;;;;;;;;;25.60;58.40;;;;;;5014675;28;20016;-56
2022/07/11 15:44:25;;;;;;;;;;;25.70;58.60;;;;;;5030809;28;19920;-54
2022/07/11 15:47:10;;;;;;;;;;;25.80;57.40;;;;;;5034305;28;19924;-54
2022/07/11 15:49:54;;;;;;;;;;;25.70;57.20;;;;;;5019644;28;19916;-53
2022/07/11 15:52:38;;;;;;;;;;;26.00;56.70;;;;;;5034499;28;20384;-53
2022/07/11 15:55:22;;;;;;;;;;;26.20;57.60;;;;;;5033989;28;19931;-54
2022/07/11 15:58:07;;;;;;;;;;;26.40;55.80;;;;;;5026955;28;20008;-55
2022/07/11 16:00:53;;;;;;;;;;;26.20;56.10;;;;;;5028480;28;19920;-53
2022/07/11 16:03:37;;;;;;;;;;;26.50;56.10;;;;;;5034054;28;20032;-53
2022/07/11 16:06:21;;;;;;;;;;;26.60;56.40;;;;;;4998843;28;20088;-52
2022/07/11 16:09:05;;;;;;;;;;;25.80;57.60;;;;;;5028286;28;19916;-52
2022/07/11 16:11:50;;;;;;;;;;;25.90;56.90;;;;;;5033978;28;20384;-52
2022/07/11 16:14:34;;;;;;;;;;;26.00;56.80;;;;;;5033644;28;19972;-54
2022/07/11 16:17:18;;;;;;;;;;;26.40;56.40;;;;;;5033823;28;19919;-56
2022/07/11 16:20:03;;;;;;;;;;;26.60;56.00;;;;;;5027876;28;19919;-56
2022/07/11 16:22:47;;;;;;;;;;;26.80;56.10;;;;;;5031883;28;19920;-56
2022/07/11 16:25:32;;;;;;;;;;;27.00;56.60;;;;;;5033188;28;19932;-54